Time;durP1;ratioP1;P1;durP2;ratioP2;P2;SDS_P1;SDS_P2;PMS_P1;PMS_P2;Temp;Humidity;BMP_temperature;BMP_pressure;BME280_temperature;BME280_humidity;BME280_pressure;Samples;Min_cycle;Max_cycle;Signal;HPM_P1;HPM_P2
2022/05/12 00:02:12;;;;;;;5.38;2.25;;;18.40;84.60;;;;;;5075672;28;20067;-77
2022/05/12 00:04:38;;;;;;;4.38;1.98;;;18.30;85.10;;;;;;5075630;28;20127;-74
2022/05/12 00:07:05;;;;;;;7.93;2.05;;;18.20;85.40;;;;;;5074829;28;20040;-74
2022/05/12 00:09:31;;;;;;;5.07;2.15;;;18.10;85.70;;;;;;5075757;28;20045;-77
2022/05/12 00:11:57;;;;;;;9.80;2.25;;;18.10;86.00;;;;;;5075879;28;20395;-74
2022/05/12 00:14:24;;;;;;;5.82;2.17;;;18.00;85.80;;;;;;5075835;28;20082;-71
2022/05/12 00:16:50;;;;;;;7.07;2.13;;;18.00;85.80;;;;;;5075822;28;20520;-77
2022/05/12 00:19:16;;;;;;;7.18;2.67;;;18.00;85.50;;;;;;5075901;28;20066;-77
2022/05/12 00:21:43;;;;;;;3.15;1.90;;;17.90;86.00;;;;;;5075519;28;20539;-77
2022/05/12 00:24:09;;;;;;;7.80;2.53;;;17.80;86.10;;;;;;5075393;28;20408;-77
2022/05/12 00:26:36;;;;;;;6.82;2.10;;;17.70;86.20;;;;;;5075193;28;20040;-74
2022/05/12 00:29:06;;;;;;;9.68;2.45;;;17.70;86.20;;;;;;5075193;28;20047;-77
2022/05/12 00:31:34;;;;;;;9.75;2.42;;;17.60;86.20;;;;;;5075317;28;20056;-77
2022/05/12 00:34:00;;;;;;;6.53;2.47;;;17.40;87.00;;;;;;5075456;28;20039;-77
2022/05/12 00:36:26;;;;;;;12.73;2.80;;;17.40;87.20;;;;;;5075233;28;20044;-77
2022/05/12 00:38:51;;;;;;;8.02;2.28;;;17.30;87.70;;;;;;5073982;28;20047;-73
2022/05/12 00:41:17;;;;;;;7.85;2.38;;;17.10;87.90;;;;;;5075060;28;20080;-77
2022/05/12 00:43:47;;;;;;;7.10;1.95;;;17.10;88.20;;;;;;5075196;28;20028;-77
2022/05/12 00:46:21;;;;;;;7.82;2.30;;;17.20;88.20;;;;;;5075253;28;20538;-77
2022/05/12 00:48:49;;;;;;;10.70;2.83;;;17.10;88.10;;;;;;5075166;28;20399;-71
2022/05/12 00:51:19;;;;;;;7.55;2.30;;;17.20;88.10;;;;;;5075101;28;20044;-69
2022/05/12 00:53:49;;;;;;;8.27;2.72;;;17.20;88.40;;;;;;5075208;28;20557;-77
2022/05/12 00:56:18;;;;;;;9.80;2.28;;;17.30;87.90;;;;;;5075017;28;20694;-77
2022/05/12 00:58:48;;;;;;;9.45;2.47;;;17.30;87.50;;;;;;5074748;28;20036;-77
2022/05/12 01:01:14;;;;;;;6.27;2.40;;;17.30;87.60;;;;;;5075064;28;20044;-76
2022/05/12 01:03:43;;;;;;;6.35;2.38;;;17.20;88.00;;;;;;5074994;28;20762;-77
2022/05/12 01:06:10;;;;;;;7.20;2.40;;;17.10;88.90;;;;;;5074766;28;20044;-77
2022/05/12 01:08:36;;;;;;;15.40;2.72;;;17.00;89.00;;;;;;5073775;28;20059;-77
2022/05/12 01:11:09;;;;;;;3.58;2.03;;;16.70;90.00;;;;;;5074611;28;20094;-73
2022/05/12 01:13:36;;;;;;;8.27;2.20;;;16.50;90.10;;;;;;5074748;28;20123;-77
2022/05/12 01:16:05;;;;;;;8.60;2.22;;;16.50;90.10;;;;;;5074539;28;20059;-77
2022/05/12 01:18:33;;;;;;;4.47;2.05;;;16.60;89.80;;;;;;5074249;28;20033;-77
2022/05/12 01:21:00;;;;;;;7.53;2.30;;;16.80;89.20;;;;;;5074471;28;20082;-77
2022/05/12 01:23:31;;;;;;;12.55;2.30;;;16.90;89.40;;;;;;5074493;28;20177;-75
2022/05/12 01:26:16;;;;;;;10.48;2.83;;;16.90;89.10;;;;;;5071013;28;20442;-77
2022/05/12 01:28:42;;;;;;;7.80;2.40;;;16.90;89.10;;;;;;5050610;28;20049;-77
2022/05/12 01:31:08;;;;;;;8.02;2.65;;;16.90;89.50;;;;;;5053127;28;20099;-77
2022/05/12 01:33:35;;;;;;;8.82;2.92;;;16.80;90.10;;;;;;5054410;28;20400;-77
2022/05/12 01:36:01;;;;;;;11.02;3.50;;;16.60;90.40;;;;;;5054192;28;20571;-77
2022/05/12 01:38:27;;;;;;;10.55;3.03;;;16.60;90.80;;;;;;5054013;28;20768;-72
2022/05/12 01:40:53;;;;;;;7.63;2.28;;;16.40;91.20;;;;;;5053893;28;20032;-77
2022/05/12 01:43:19;;;;;;;11.50;2.83;;;16.60;90.90;;;;;;5054267;28;20029;-71
2022/05/12 01:45:46;;;;;;;8.25;3.13;;;16.50;91.20;;;;;;5052739;28;20408;-72
2022/05/12 01:48:13;;;;;;;9.70;2.78;;;16.50;91.20;;;;;;5054047;28;20455;-75
2022/05/12 01:50:40;;;;;;;6.30;2.28;;;;;;;;;;5053963;28;20061;-76
2022/05/12 01:53:09;;;;;;;10.65;2.60;;;15.90;92.10;;;;;;5054016;28;20152;-77
2022/05/12 01:55:35;;;;;;;9.05;2.72;;;15.90;92.20;;;;;;5053949;28;20439;-69
2022/05/12 01:58:01;;;;;;;9.38;2.47;;;15.90;92.50;;;;;;5053899;28;20033;-77
2022/05/12 02:00:29;;;;;;;7.10;2.70;;;16.10;91.90;;;;;;5053903;28;20408;-74
2022/05/12 02:02:57;;;;;;;9.18;2.35;;;16.00;92.10;;;;;;5053635;28;20094;-77
2022/05/12 02:05:23;;;;;;;10.82;2.80;;;16.00;92.40;;;;;;5053576;28;20041;-77
2022/05/12 02:07:50;;;;;;;6.93;2.20;;;15.90;92.60;;;;;;5053409;28;20056;-76
2022/05/12 02:10:23;;;;;;;12.52;3.13;;;15.80;92.70;;;;;;5053401;28;20037;-77
2022/05/12 02:12:49;;;;;;;7.82;2.80;;;15.90;93.00;;;;;;5053385;28;20110;-77
2022/05/12 02:15:16;;;;;;;13.15;3.78;;;15.60;93.50;;;;;;5053503;28;20076;-76
2022/05/12 02:17:42;;;;;;;8.05;2.28;;;15.50;93.60;;;;;;5068818;28;20041;-77
2022/05/12 02:20:10;;;;;;;8.40;2.90;;;15.60;93.20;;;;;;5052186;28;20040;-77
2022/05/12 02:22:36;;;;;;;9.45;2.50;;;15.70;92.90;;;;;;5053265;28;20083;-76
2022/05/12 02:25:04;;;;;;;7.72;2.90;;;15.60;92.90;;;;;;5053367;28;20041;-77
2022/05/12 02:27:29;;;;;;;7.38;2.55;;;15.60;93.00;;;;;;5053097;28;20136;-74
2022/05/12 02:29:55;;;;;;;7.85;2.78;;;15.60;93.40;;;;;;5053021;28;20136;-76
2022/05/12 02:32:22;;;;;;;9.60;3.08;;;15.60;93.50;;;;;;5053339;28;20523;-77
2022/05/12 02:34:47;;;;;;;8.95;2.95;;;15.40;93.90;;;;;;5053130;28;20041;-77
2022/05/12 02:37:13;;;;;;;8.43;3.13;;;15.50;93.60;;;;;;5053092;28;20090;-75
2022/05/12 02:39:40;;;;;;;7.68;2.97;;;15.40;93.60;;;;;;5055046;28;20037;-73
2022/05/12 02:42:08;;;;;;;8.68;2.88;;;15.20;93.80;;;;;;5072620;28;20035;-76
2022/05/12 02:44:35;;;;;;;7.70;2.90;;;15.20;93.90;;;;;;5072283;28;20123;-77
2022/05/12 02:47:01;;;;;;;9.95;2.78;;;14.80;94.40;;;;;;5073184;28;20051;-76
2022/05/12 02:49:27;;;;;;;8.82;2.92;;;14.60;94.80;;;;;;5072952;28;20127;-75
2022/05/12 02:51:53;;;;;;;15.40;2.63;;;14.70;95.00;;;;;;5073061;28;20128;-77
2022/05/12 02:54:19;;;;;;;5.03;2.25;;;14.70;94.70;;;;;;5073173;28;20047;-76
2022/05/12 02:56:45;;;;;;;9.90;2.83;;;14.90;94.60;;;;;;5072798;28;20120;-76
2022/05/12 02:59:12;;;;;;;9.95;3.08;;;14.80;94.60;;;;;;5072514;28;20115;-72
2022/05/12 03:01:38;;;;;;;8.45;2.92;;;14.90;94.80;;;;;;5072704;28;20484;-76
2022/05/12 03:04:04;;;;;;;6.55;2.65;;;14.90;94.70;;;;;;5072785;28;20048;-71
2022/05/12 03:06:31;;;;;;;8.57;2.55;;;15.00;94.60;;;;;;5071565;28;20044;-76
2022/05/12 03:08:58;;;;;;;8.25;2.38;;;14.90;95.10;;;;;;5072808;28;20032;-76
2022/05/12 03:11:24;;;;;;;7.22;2.60;;;14.80;95.00;;;;;;5072640;28;20523;-72
2022/05/12 03:13:50;;;;;;;12.02;2.72;;;14.80;95.30;;;;;;5072698;28;20127;-76
2022/05/12 03:16:20;;;;;;;6.95;3.03;;;14.90;95.30;;;;;;5072725;28;20519;-76
2022/05/12 03:18:47;;;;;;;6.68;2.90;;;14.90;95.80;;;;;;5072713;28;20048;-76
2022/05/12 03:21:17;;;;;;;9.98;3.50;;;14.80;96.00;;;;;;5072724;28;20036;-76
2022/05/12 03:23:43;;;;;;;5.85;3.03;;;14.80;96.10;;;;;;5072785;28;20040;-76
2022/05/12 03:26:09;;;;;;;11.80;3.42;;;14.80;96.10;;;;;;5072655;28;20029;-76
2022/05/12 03:28:36;;;;;;;8.15;3.10;;;14.80;96.30;;;;;;5072475;28;20143;-76
2022/05/12 03:31:02;;;;;;;12.13;2.90;;;14.80;96.50;;;;;;5074561;28;20048;-70
2022/05/12 03:33:27;;;;;;;8.38;2.72;;;14.90;96.50;;;;;;5076428;28;20047;-76
2022/05/12 03:35:53;;;;;;;10.13;3.05;;;14.80;96.40;;;;;;5076461;28;20054;-76
2022/05/12 03:38:20;;;;;;;8.55;3.25;;;14.80;97.00;;;;;;5076199;28;20492;-74
2022/05/12 03:40:46;;;;;;;11.27;3.20;;;14.90;96.50;;;;;;5074172;28;20444;-69
2022/05/12 03:44:46;;;;;;;7.95;2.95;;;14.80;96.60;;;;;;5076528;28;20381;-73
2022/05/12 03:45:58;;;;;;;7.60;2.95;;;14.70;96.90;;;;;;5075886;28;20047;-69
2022/05/12 03:48:24;;;;;;;11.25;3.05;;;14.60;97.00;;;;;;5075633;28;20041;-69
2022/05/12 03:50:50;;;;;;;7.97;4.30;;;14.40;97.50;;;;;;5075192;28;20098;-75
2022/05/12 03:53:16;;;;;;;17.75;3.38;;;14.40;97.50;;;;;;5075918;28;20025;-75
2022/05/12 03:55:42;;;;;;;4.65;2.47;;;14.50;97.60;;;;;;5074746;28;20048;-76
2022/05/12 03:58:08;;;;;;;10.25;2.75;;;14.60;97.30;;;;;;5074364;28;20446;-75
2022/05/12 04:00:34;;;;;;;5.57;2.80;;;14.70;97.00;;;;;;5075975;28;20094;-76
2022/05/12 04:03:01;;;;;;;9.30;2.90;;;14.60;97.50;;;;;;5076056;28;20078;-74
2022/05/12 04:05:28;;;;;;;6.72;3.00;;;14.50;97.60;;;;;;5075976;28;20047;-76
2022/05/12 04:07:54;;;;;;;10.43;2.75;;;14.70;97.40;;;;;;5075784;28;20033;-75
2022/05/12 04:10:21;;;;;;;8.57;2.72;;;14.70;97.40;;;;;;5075738;28;20052;-76
2022/05/12 04:12:47;;;;;;;7.25;3.15;;;14.80;97.20;;;;;;5075798;28;20029;-76
2022/05/12 04:15:15;;;;;;;8.35;3.05;;;14.90;97.10;;;;;;5075555;28;20079;-76
2022/05/12 04:17:42;;;;;;;5.88;2.70;;;14.90;97.80;;;;;;5075498;28;20051;-73
2022/05/12 04:20:12;;;;;;;10.73;3.28;;;14.70;98.60;;;;;;5074432;28;20051;-70
2022/05/12 04:22:40;;;;;;;5.95;2.78;;;14.50;98.90;;;;;;5075657;28;20051;-70
2022/05/12 04:25:07;;;;;;;9.88;3.42;;;14.20;99.40;;;;;;5075633;28;20037;-76
2022/05/12 04:27:37;;;;;;;8.95;3.45;;;14.10;99.70;;;;;;5063878;28;20045;-75
2022/05/12 04:30:04;;;;;;;9.18;3.10;;;14.30;99.10;;;;;;5055584;28;20060;-73
2022/05/12 04:32:33;;;;;;;9.55;2.80;;;14.50;99.30;;;;;;5055454;28;20037;-76
2022/05/12 04:35:11;;;;;;;6.25;2.45;;;14.50;98.20;;;;;;5066389;28;20056;-70
2022/05/12 04:37:39;;;;;;;9.63;3.10;;;14.60;98.10;;;;;;5075285;28;20044;-76
2022/05/12 04:40:11;;;;;;;8.55;3.17;;;14.60;97.90;;;;;;5075231;28;20393;-75
2022/05/12 04:42:37;;;;;;;8.38;2.55;;;14.80;98.10;;;;;;5073972;28;20117;-71
2022/05/12 04:45:05;;;;;;;9.93;2.83;;;14.80;98.20;;;;;;5075343;28;20379;-76
2022/05/12 04:47:32;;;;;;;16.15;3.92;;;14.80;98.80;;;;;;5075162;28;20032;-70
2022/05/12 04:49:58;;;;;;;10.82;3.30;;;15.00;97.40;;;;;;5075082;28;20044;-76
2022/05/12 04:52:25;;;;;;;11.65;2.90;;;15.10;97.40;;;;;;5075006;28;20106;-69
2022/05/12 04:54:54;;;;;;;6.43;3.17;;;14.70;98.90;;;;;;5074860;28;20056;-75
2022/05/12 04:57:20;;;;;;;7.47;2.78;;;14.60;99.60;;;;;;5075005;28;20395;-75
2022/05/12 04:59:46;;;;;;;10.82;3.40;;;14.50;99.90;;;;;;5074937;28;20037;-76
2022/05/12 05:02:12;;;;;;;7.68;3.45;;;14.90;99.90;;;;;;5074715;28;20040;-68
2022/05/12 05:04:38;;;;;;;5.10;2.85;;;15.10;99.30;;;;;;5074527;28;20407;-68
2022/05/12 05:07:06;;;;;;;8.93;3.30;;;15.10;99.90;;;;;;5074524;28;20037;-73
2022/05/12 05:09:31;;;;;;;5.10;3.08;;;15.00;99.90;;;;;;5073147;28;20492;-70
2022/05/12 05:11:57;;;;;;;9.57;3.67;;;15.00;99.90;;;;;;5074657;28;20051;-69
2022/05/12 05:14:23;;;;;;;8.20;3.30;;;15.10;99.90;;;;;;5074845;28;20503;-69
2022/05/12 05:16:49;;;;;;;9.10;3.03;;;15.40;99.70;;;;;;5073650;28;20051;-68
2022/05/12 05:19:16;;;;;;;8.23;3.20;;;15.60;99.80;;;;;;5074356;28;20043;-68
2022/05/12 05:21:42;;;;;;;9.20;3.65;;;15.90;99.00;;;;;;5074629;28;20098;-68
2022/05/12 05:24:08;;;;;;;7.45;3.03;;;15.80;99.40;;;;;;5074565;28;20049;-68
2022/05/12 05:26:34;;;;;;;9.25;3.10;;;15.70;99.60;;;;;;5074137;28;20040;-72
2022/05/12 05:29:01;;;;;;;13.23;3.13;;;15.60;99.80;;;;;;5071172;28;20033;-70
2022/05/12 05:31:27;;;;;;;7.95;3.08;;;15.70;99.60;;;;;;5053428;28;20581;-68
2022/05/12 05:33:53;;;;;;;6.80;3.28;;;15.60;99.50;;;;;;5053226;28;20040;-68
2022/05/12 05:36:19;;;;;;;7.03;3.20;;;15.60;98.80;;;;;;5053686;28;20048;-69
2022/05/12 05:38:45;;;;;;;8.90;3.65;;;15.60;98.50;;;;;;5053285;28;20041;-68
2022/05/12 05:41:11;;;;;;;9.98;3.30;;;15.60;98.40;;;;;;5054239;28;20041;-71
2022/05/12 05:43:38;;;;;;;9.02;3.20;;;15.90;98.30;;;;;;5054187;28;20037;-74
2022/05/12 05:46:05;;;;;;;7.32;3.33;;;16.20;98.80;;;;;;5053725;28;20128;-73
2022/05/12 05:48:31;;;;;;;9.20;3.35;;;16.40;98.80;;;;;;5072122;28;20075;-73
2022/05/12 05:53:42;;;;;;;7.95;3.22;;;16.90;99.10;;;;;;5071762;28;20082;-73
2022/05/12 05:56:17;;;;;;;9.07;3.47;;;17.10;98.70;;;;;;5073851;28;20128;-73
2022/05/12 05:58:44;;;;;;;9.35;3.10;;;17.20;99.10;;;;;;5073090;28;20067;-69
2022/05/12 06:01:11;;;;;;;12.07;2.97;;;17.20;99.50;;;;;;5071862;28;20087;-74
2022/05/12 06:03:37;;;;;;;8.55;3.55;;;17.30;99.60;;;;;;5072723;28;20040;-70
2022/05/12 06:06:04;;;;;;;7.85;3.15;;;17.30;99.70;;;;;;5073620;28;20044;-74
2022/05/12 06:08:30;;;;;;;8.80;2.97;;;17.30;99.30;;;;;;5072595;28;20036;-69
2022/05/12 06:10:59;;;;;;;8.50;3.15;;;17.20;99.50;;;;;;5066815;28;20056;-73
2022/05/12 06:13:25;;;;;;;12.57;3.63;;;16.90;99.00;;;;;;5054071;28;20044;-68
2022/05/12 06:15:50;;;;;;;7.00;2.92;;;17.00;98.90;;;;;;5051596;28;20048;-71
2022/05/12 06:18:18;;;;;;;11.50;4.35;;;16.90;99.00;;;;;;5051777;28;20117;-74
2022/05/12 06:20:47;;;;;;;11.45;3.22;;;17.20;99.50;;;;;;5051837;28;20036;-69
2022/05/12 06:23:13;;;;;;;7.50;3.55;;;17.30;99.90;;;;;;5050877;28;20527;-71
2022/05/12 06:25:40;;;;;;;8.55;3.20;;;17.20;99.30;;;;;;5051027;28;20057;-72
2022/05/12 06:28:06;;;;;;;11.23;3.67;;;17.50;99.90;;;;;;5051196;28;20060;-70
2022/05/12 06:30:32;;;;;;;12.10;3.95;;;17.50;99.40;;;;;;5051476;28;20048;-81
2022/05/12 06:33:19;;;;;;;11.65;3.30;;;17.70;99.40;;;;;;5053453;28;20099;-74
2022/05/12 06:35:47;;;;;;;8.60;3.70;;;18.00;99.30;;;;;;5052179;28;20048;-68
2022/05/12 06:38:13;;;;;;;10.10;3.33;;;17.80;98.40;;;;;;5053305;28;20036;-68
2022/05/12 06:40:39;;;;;;;7.85;3.55;;;18.00;99.20;;;;;;5053308;28;20032;-68
2022/05/12 06:46:09;;;;;;;16.08;3.70;;;18.30;99.90;;;;;;5053239;28;20040;-69
2022/05/12 06:48:37;;;;;;;9.65;3.50;;;19.10;99.30;;;;;;5053083;28;20119;-68
2022/05/12 06:51:03;;;;;;;11.65;3.88;;;19.20;98.30;;;;;;5052910;28;20076;-67
2022/05/12 06:53:30;;;;;;;6.78;3.15;;;19.30;97.60;;;;;;5052194;28;20045;-68
2022/05/12 06:55:56;;;;;;;6.60;3.03;;;19.50;97.50;;;;;;5052631;28;20037;-68
2022/05/12 06:58:21;;;;;;;7.07;3.30;;;19.40;97.40;;;;;;5052440;28;20041;-68
2022/05/12 07:00:48;;;;;;;6.20;2.85;;;19.60;97.40;;;;;;5051151;28;20044;-69
2022/05/12 07:03:13;;;;;;;18.55;9.35;;;19.70;98.00;;;;;;5050780;28;20044;-69
2022/05/12 07:05:41;;;;;;;17.27;6.80;;;19.70;97.80;;;;;;5050065;28;20056;-68
2022/05/12 07:08:07;;;;;;;6.00;3.20;;;19.60;97.50;;;;;;5050822;28;20148;-68
2022/05/12 07:10:34;;;;;;;8.60;3.38;;;19.80;97.60;;;;;;5050832;28;20060;-69
2022/05/12 07:13:00;;;;;;;15.02;3.50;;;20.20;96.70;;;;;;5051423;28;20709;-68
2022/05/12 07:15:27;;;;;;;10.30;3.50;;;20.50;95.80;;;;;;5053931;28;20094;-68
2022/05/12 07:17:55;;;;;;;9.25;2.85;;;20.10;94.80;;;;;;5056422;28;20202;-68
2022/05/12 07:28:37;;;;;;;7.03;2.95;;;21.10;94.50;;;;;;5069481;28;20066;-68
2022/05/12 07:31:05;;;;;;;8.55;3.25;;;21.40;94.70;;;;;;5069242;28;20052;-69
2022/05/12 07:33:34;;;;;;;10.02;2.75;;;21.50;93.50;;;;;;5069627;28;20500;-69
2022/05/12 07:36:05;;;;;;;6.35;2.90;;;21.50;93.80;;;;;;5069889;28;20041;-69
2022/05/12 07:38:32;;;;;;;4.75;2.25;;;21.70;93.80;;;;;;5069980;28;20438;-68
2022/05/12 07:40:58;;;;;;;12.13;2.63;;;22.10;92.50;;;;;;5069589;28;20044;-68
2022/05/12 07:43:24;;;;;;;5.65;2.22;;;22.30;93.40;;;;;;5068175;28;20042;-68
2022/05/12 07:45:50;;;;;;;9.15;3.05;;;21.80;92.80;;;;;;5065616;28;20049;-70
2022/05/12 07:48:16;;;;;;;14.88;3.33;;;22.20;92.00;;;;;;5054645;28;20025;-68
2022/05/12 07:50:42;;;;;;;6.85;2.63;;;22.30;92.00;;;;;;5057054;28;20048;-68
2022/05/12 07:53:09;;;;;;;7.47;2.42;;;22.20;90.60;;;;;;5065799;28;20098;-69
2022/05/12 07:55:35;;;;;;;6.68;2.40;;;22.30;90.60;;;;;;5061412;28;20120;-68
2022/05/12 07:58:03;;;;;;;10.52;2.60;;;22.60;91.70;;;;;;5068826;28;20461;-68
2022/05/12 08:00:30;;;;;;;7.78;2.70;;;22.60;90.70;;;;;;5070438;28;20052;-68
2022/05/12 08:02:56;;;;;;;6.72;2.58;;;22.60;90.80;;;;;;5061729;28;20380;-68
2022/05/12 08:05:23;;;;;;;11.50;2.95;;;22.30;91.30;;;;;;5057780;28;20123;-67
2022/05/12 08:07:49;;;;;;;12.82;2.63;;;22.20;92.40;;;;;;5060215;28;20047;-68
2022/05/12 08:10:16;;;;;;;5.03;2.55;;;22.50;93.10;;;;;;5062077;28;20491;-68
2022/05/12 08:12:42;;;;;;;10.75;3.17;;;22.30;92.10;;;;;;5070125;28;20037;-68
2022/05/12 08:15:09;;;;;;;9.45;2.72;;;21.70;90.50;;;;;;5069448;28;20028;-69
2022/05/12 08:17:36;;;;;;;7.38;2.33;;;21.60;91.60;;;;;;5072685;28;20071;-68
2022/05/12 08:20:05;;;;;;;8.68;2.95;;;21.80;91.30;;;;;;5073487;28;20043;-69
2022/05/12 08:22:32;;;;;;;8.15;2.22;;;22.50;91.30;;;;;;5073807;28;20036;-69
2022/05/12 08:24:58;;;;;;;7.28;2.70;;;22.80;90.80;;;;;;5075059;28;20040;-68
2022/05/12 08:27:25;;;;;;;7.10;2.25;;;23.10;91.60;;;;;;5073725;28;20040;-67
2022/05/12 08:29:51;;;;;;;13.88;2.30;;;23.00;90.00;;;;;;5072709;28;20043;-67
2022/05/12 08:32:17;;;;;;;6.93;2.60;;;22.80;87.50;;;;;;5073290;28;20052;-67
2022/05/12 08:34:44;;;;;;;6.55;2.03;;;22.50;90.00;;;;;;5074385;28;20036;-67
2022/05/12 08:37:11;;;;;;;7.75;2.33;;;22.30;89.20;;;;;;5075468;28;20048;-68
2022/05/12 08:39:37;;;;;;;5.60;2.65;;;22.30;90.30;;;;;;5073913;28;20040;-67
2022/05/12 08:42:16;;;;;;;9.05;2.22;;;22.40;88.70;;;;;;5073351;28;20089;-67
2022/05/12 08:44:42;;;;;;;9.57;2.22;;;22.10;87.90;;;;;;5073822;28;20044;-67
2022/05/12 08:47:16;;;;;;;6.53;2.67;;;21.90;87.40;;;;;;5073122;28;20037;-67
2022/05/12 08:49:46;;;;;;;13.45;2.85;;;22.30;85.50;;;;;;5071668;28;20040;-67
2022/05/12 08:52:47;;;;;;;9.95;2.38;;;22.70;87.70;;;;;;5072863;28;20044;-67
2022/05/12 08:55:26;;;;;;;6.50;2.05;;;22.80;86.40;;;;;;5072954;28;20133;-67
2022/05/12 08:57:57;;;;;;;8.15;2.83;;;22.90;87.50;;;;;;5073078;28;20037;-67
2022/05/12 09:00:26;;;;;;;10.35;2.67;;;23.10;86.10;;;;;;5072748;28;20029;-67
2022/05/12 09:02:57;;;;;;;10.27;2.63;;;22.80;85.00;;;;;;5075020;28;20047;-68
2022/05/12 09:05:28;;;;;;;5.65;2.35;;;22.80;86.40;;;;;;5074349;28;20033;-67
2022/05/12 09:08:03;;;;;;;12.13;3.60;;;23.30;87.10;;;;;;5073336;28;20049;-67
2022/05/12 09:10:59;;;;;;;6.43;2.53;;;23.30;87.40;;;;;;5072569;28;20105;-67
2022/05/12 09:13:31;;;;;;;8.10;2.30;;;23.40;85.00;;;;;;5064096;28;20040;-67
2022/05/12 09:16:15;;;;;;;6.72;2.83;;;24.00;88.20;;;;;;5072777;28;20032;-67
2022/05/12 09:18:41;;;;;;;6.20;2.75;;;24.40;88.00;;;;;;5071933;28;20033;-67
2022/05/12 09:21:12;;;;;;;6.38;2.58;;;24.30;86.50;;;;;;5072373;28;20044;-67
2022/05/12 09:23:38;;;;;;;8.85;2.40;;;24.10;83.20;;;;;;5067272;28;20029;-67
2022/05/12 09:26:35;;;;;;;10.35;2.72;;;24.20;82.40;;;;;;5061484;28;20048;-67
2022/05/12 09:29:12;;;;;;;9.73;2.30;;;24.60;81.50;;;;;;5052713;28;20079;-68
2022/05/12 09:31:39;;;;;;;9.30;2.65;;;24.70;81.50;;;;;;5059385;28;20741;-67
2022/05/12 09:34:16;;;;;;;12.88;3.35;;;24.80;81.50;;;;;;5058763;28;20552;-67
2022/05/12 09:36:41;;;;;;;4.38;2.40;;;24.70;82.80;;;;;;5052736;28;20044;-67
2022/05/12 09:39:08;;;;;;;10.60;2.63;;;24.40;82.10;;;;;;5051918;28;20037;-67
2022/05/12 09:41:41;;;;;;;8.85;2.53;;;24.30;82.40;;;;;;5052335;28;20048;-68
2022/05/12 09:44:27;;;;;;;7.15;2.40;;;23.50;80.50;;;;;;5051739;28;20048;-68
2022/05/12 09:46:59;;;;;;;7.78;2.25;;;24.20;82.70;;;;;;5051755;28;20045;-68
2022/05/12 09:49:34;;;;;;;176.55;45.42;;;24.60;81.00;;;;;;5052863;28;20055;-68
2022/05/12 09:52:27;;;;;;;23.95;11.15;;;24.20;83.00;;;;;;5052467;28;20056;-68
2022/05/12 09:55:13;;;;;;;6.85;3.25;;;24.20;82.00;;;;;;5047257;28;20071;-67
2022/05/12 09:57:51;;;;;;;5.93;2.72;;;24.40;83.30;;;;;;5051916;28;20136;-67
2022/05/12 10:00:54;;;;;;;7.10;2.85;;;24.40;82.40;;;;;;5051840;28;20504;-67
2022/05/12 10:09:28;;;;;;;15.40;4.05;;;24.90;84.50;;;;;;5051348;28;20036;-67
2022/05/12 10:12:06;;;;;;;12.07;2.75;;;24.50;83.20;;;;;;5051295;28;20056;-68
2022/05/12 10:15:16;;;;;;;10.05;4.45;;;24.90;84.40;;;;;;5051666;28;20404;-67
2022/05/12 10:17:53;;;;;;;12.40;3.65;;;25.00;82.00;;;;;;5028028;28;20045;-68
2022/05/12 10:20:22;;;;;;;8.60;3.03;;;25.20;82.00;;;;;;5051128;28;20044;-68
2022/05/12 10:22:56;;;;;;;12.45;3.53;;;24.90;83.70;;;;;;5050861;28;20037;-68
2022/05/12 10:25:37;;;;;;;7.53;2.53;;;24.10;81.60;;;;;;5051063;28;20045;-68
2022/05/12 10:28:17;;;;;;;13.63;2.88;;;24.00;83.50;;;;;;5053898;28;20415;-68
2022/05/12 10:30:59;;;;;;;12.23;3.03;;;24.10;82.80;;;;;;5061161;28;20124;-68
2022/05/12 10:33:46;;;;;;;11.32;3.40;;;24.20;80.60;;;;;;5051015;28;20102;-68
2022/05/12 10:36:33;;;;;;;8.32;2.70;;;24.40;83.30;;;;;;5051470;28;20079;-68
2022/05/12 10:39:01;;;;;;;9.82;3.25;;;24.00;81.10;;;;;;5050713;28;20048;-68
2022/05/12 10:41:36;;;;;;;12.07;3.40;;;23.90;81.40;;;;;;5051412;28;20123;-68
2022/05/12 10:44:21;;;;;;;7.80;2.90;;;23.90;84.30;;;;;;5052246;28;20040;-69
2022/05/12 10:46:59;;;;;;;18.45;3.95;;;23.60;83.30;;;;;;5050213;28;20067;-69
2022/05/12 10:49:41;;;;;;;8.82;2.78;;;23.90;82.80;;;;;;5050948;28;20067;-68
2022/05/12 10:52:33;;;;;;;8.75;2.90;;;24.00;82.40;;;;;;5050538;28;20048;-69
2022/05/12 10:55:05;;;;;;;12.65;3.42;;;24.50;84.70;;;;;;5061079;28;20518;-68
2022/05/12 10:57:39;;;;;;;10.60;2.80;;;25.20;85.50;;;;;;5060564;28;20045;-68
2022/05/12 11:00:32;;;;;;;8.70;2.40;;;25.20;81.90;;;;;;5050109;28;20044;-68
2022/05/12 11:03:13;;;;;;;11.20;2.72;;;25.30;83.80;;;;;;5050462;28;20041;-68
2022/05/12 11:05:55;;;;;;;10.88;2.65;;;25.50;82.90;;;;;;5068802;28;20570;-67
2022/05/12 11:08:44;;;;;;;7.18;2.55;;;25.70;81.10;;;;;;5070062;28;20044;-68
2022/05/12 11:11:19;;;;;;;10.95;2.72;;;25.50;84.00;;;;;;5059089;28;20052;-68
2022/05/12 11:13:56;;;;;;;9.65;2.85;;;25.60;81.20;;;;;;5070537;28;20384;-68
2022/05/12 11:16:33;;;;;;;8.85;2.72;;;24.80;79.90;;;;;;5070032;28;20074;-68
2022/05/12 11:19:16;;;;;;;8.05;2.85;;;25.10;81.90;;;;;;5071416;28;20041;-68
2022/05/12 11:22:03;;;;;;;12.60;3.20;;;25.20;82.00;;;;;;5070948;28;20530;-68
2022/05/12 11:24:55;;;;;;;10.60;3.42;;;24.90;80.70;;;;;;5070686;28;20449;-68
2022/05/12 11:27:48;;;;;;;7.95;2.53;;;24.60;84.10;;;;;;5070501;28;20122;-69
2022/05/12 11:30:36;;;;;;;13.52;2.78;;;24.40;81.40;;;;;;5070192;28;20040;-68
2022/05/12 11:33:16;;;;;;;13.05;3.08;;;24.80;82.20;;;;;;5072253;28;20427;-68
2022/05/12 11:35:45;;;;;;;10.93;3.03;;;24.70;81.10;;;;;;5071250;28;20089;-69
2022/05/12 11:38:43;;;;;;;8.65;2.53;;;24.70;83.50;;;;;;5070978;28;20471;-69
2022/05/12 11:41:25;;;;;;;11.20;2.90;;;24.60;83.60;;;;;;5069147;28;20441;-69
2022/05/12 11:44:24;;;;;;;9.40;3.13;;;24.60;83.80;;;;;;5069812;28;20040;-69
2022/05/12 11:47:08;;;;;;;12.25;3.20;;;24.70;84.80;;;;;;5070165;28;20560;-69
2022/05/12 11:49:54;;;;;;;8.55;2.63;;;24.70;82.50;;;;;;5070432;28;20040;-68
2022/05/12 11:52:26;;;;;;;15.25;3.15;;;24.70;82.00;;;;;;5073120;28;20044;-68
2022/05/12 11:54:56;;;;;;;14.07;3.08;;;24.60;82.50;;;;;;5075428;28;20048;-69
2022/05/12 11:57:37;;;;;;;8.57;3.97;;;24.50;81.80;;;;;;5076248;28;20039;-68
2022/05/12 12:00:05;;;;;;;;;;;24.50;81.10;;;;;;5074514;28;20068;-68
2022/05/12 12:02:31;;;;;;;7.07;2.80;;;24.50;83.40;;;;;;5073363;28;19920;-68
2022/05/12 12:04:58;;;;;;;8.77;3.13;;;24.50;83.80;;;;;;5074793;28;20119;-68
2022/05/12 12:07:34;;;;;;;7.43;2.72;;;24.50;83.10;;;;;;5074230;28;20040;-68
2022/05/12 12:10:23;;;;;;;9.80;3.00;;;24.30;87.00;;;;;;5072693;28;20446;-68
2022/05/12 12:13:03;;;;;;;13.93;3.90;;;24.20;84.10;;;;;;5075694;28;20044;-67
2022/05/12 12:15:37;;;;;;;11.55;3.05;;;24.20;82.00;;;;;;5076104;28;20064;-67
2022/05/12 12:18:17;;;;;;;9.00;2.97;;;24.10;85.10;;;;;;5075960;28;20495;-67
2022/05/12 12:20:53;;;;;;;12.80;3.65;;;23.90;82.70;;;;;;5075982;28;20047;-68
2022/05/12 12:23:28;;;;;;;11.95;3.40;;;24.00;83.60;;;;;;5075917;28;20043;-67
2022/05/12 12:26:17;;;;;;;12.65;3.10;;;24.10;82.90;;;;;;5075865;28;20040;-67
2022/05/12 12:29:04;;;;;;;10.88;3.22;;;24.10;82.20;;;;;;5075677;28;20530;-68
2022/05/12 12:31:37;;;;;;;14.48;3.35;;;24.30;85.00;;;;;;5075516;28;20048;-68
2022/05/12 12:34:14;;;;;;;17.92;3.60;;;24.30;82.40;;;;;;5074815;28;20527;-68
2022/05/12 12:36:52;;;;;;;8.77;3.22;;;24.30;83.80;;;;;;5074123;28;20406;-68
2022/05/12 12:39:48;;;;;;;15.65;3.15;;;24.30;82.10;;;;;;5075666;28;20044;-68
2022/05/12 12:42:46;;;;;;;16.02;3.65;;;24.40;84.50;;;;;;5075601;28;20032;-68
2022/05/12 12:45:12;;;;;;;14.60;3.42;;;24.40;85.00;;;;;;5073194;28;20155;-69
2022/05/12 12:48:00;;;;;;;11.75;3.20;;;24.40;84.50;;;;;;5075668;28;20520;-68
2022/05/12 12:50:42;;;;;;;12.30;3.85;;;;;;;;;;5074709;28;20127;-69
2022/05/12 12:56:30;;;;;;;16.95;3.53;;;24.40;82.00;;;;;;5074842;28;20052;-68
2022/05/12 12:56:34;;;;;;;11.15;3.30;;;24.40;83.40;;;;;;5074719;28;20068;-68
2022/05/12 12:59:22;;;;;;;16.40;4.25;;;24.50;81.00;;;;;;5075172;28;20059;-68
2022/05/12 13:01:48;;;;;;;10.75;2.88;;;24.60;84.00;;;;;;5075152;28;20153;-67
2022/05/12 13:04:22;;;;;;;10.10;3.30;;;24.80;82.80;;;;;;5073784;28;20626;-68
2022/05/12 13:06:52;;;;;;;7.82;2.97;;;25.20;84.60;;;;;;5075422;28;20177;-68
2022/05/12 13:09:31;;;;;;;12.13;3.45;;;25.50;81.50;;;;;;5075059;28;20523;-68
2022/05/12 13:12:27;;;;;;;11.05;3.22;;;25.70;81.90;;;;;;5074986;28;20135;-68
2022/05/12 13:14:55;;;;;;;16.30;3.28;;;25.70;82.20;;;;;;5074833;28;20109;-68
2022/05/12 13:17:25;;;;;;;20.23;3.55;;;25.60;83.60;;;;;;5074708;28;20119;-68
2022/05/12 13:19:52;;;;;;;13.88;3.55;;;26.30;87.00;;;;;;5074672;28;20045;-68
2022/05/12 13:22:45;;;;;;;10.00;2.50;;;26.30;81.60;;;;;;5074805;28;20048;-68
2022/05/12 13:25:15;;;;;;;16.60;4.22;;;25.80;79.90;;;;;;5073676;28;20043;-68